Nearby METAR Reports

 

KMTN - Baltimore/Martin, Maryland, USA
Distance from station: SSE 8mi, 13km
Updated: Fri, 18-Apr-2014 1:45pm EDT
Overcast
Overcast
 Wind from ESE
Wind: ESE 6 mph , 9 km/h
Temperature: 48°F , 9°C
Wind Chill: 45°F , 7°C
Dew Point: 36°F , 2°C
Humidity: 62%
Barometer: 30.45 inHg , 1031.2 hPa
Clouds: Overcast
Visibility: 10 miles , 16 km
Cloud details: Overcast 15000 ft
2014/04/18 17:45 KMTN 181745Z 11005KT 10SM OVC150 09/02 A3045
KDMH - Baltimore/Dwntwn, Maryland, USA
Distance from station: SW 12mi, 19km
Updated: Fri, 18-Apr-2014 1:54pm EDT

 
Temperature: 48°F , 9°C
Dew Point: 34°F , 1°C
Humidity: 58%
Barometer: 30.44 inHg , 1030.8 hPa
2014/04/18 17:54 KDMH 181754Z AUTO 09/01 A3044 RMK AO1 SLP306 T00890006 10089 20044 58025
 
KBWI - Balto/Wash Intl, Maryland, USA
Distance from station: SSW 20mi, 33km
Updated: Fri, 18-Apr-2014 1:54pm EDT
Overcast
Overcast
 Wind from varies
Wind: varies 6 mph , 9 km/h
Temperature: 46°F , 8°C
Wind Chill: 43°F , 6°C
Dew Point: 32°F , 0°C
Humidity: 57%
Barometer: 30.42 inHg , 1030.1 hPa
Clouds: Overcast
Visibility: 10 miles , 16 km
Cloud details: Partly cloudy 9000 ft
Overcast 15000 ft
2014/04/18 17:54 KBWI 181754Z VRB05KT 10SM SCT090 OVC150 08/00 A3042 RMK AO2 SLP302 T00830000 10083 20039 58020
KDMW - Carroll Cnty, Maryland, USA
Distance from station: WNW 30mi, 48km
Updated: Fri, 18-Apr-2014 2:00pm EDT
Clear
Clear
 Wind from SSE
Wind: SSE 8 mph , 13 km/h
Temperature: 52°F , 11°C
Dew Point: 34°F , 1°C
Humidity: 50%
Barometer: 30.38 inHg , 1028.8 hPa
Clouds: Clear
Visibility: 10 miles , 16 km
2014/04/18 18:00 KDMW 181800Z AUTO 15007KT 10SM CLR 11/01 A3038 RMK AO2
 
KNAK - Annapolis/Naval, Maryland, USA
Distance from station: S 30mi, 48km
Updated: Fri, 18-Apr-2014 1:54pm EDT
Clear
Clear
 Wind from SE
Wind: SE 5 mph , 7 km/h
Temperature: 46°F , 8°C
Wind Chill: 44°F , 7°C
Dew Point: 34°F , 1°C
Humidity: 62%
Barometer: 30.44 inHg , 1030.8 hPa
Clouds: Clear
Visibility: 10 miles , 16 km
2014/04/18 17:54 KNAK 181754Z AUTO 13004KT 10SM CLR 08/01 A3044 RMK AO2 SLP309 T00780011 10078 20050 58018
KW29 - Stevensville, Maryland, USA
Distance from station: SSE 31mi, 50km
Updated: Fri, 18-Apr-2014 1:59pm EDT
Clear
Clear
 Wind from NW
Wind: NW 6 mph , 9 km/h
Temperature: 46°F , 8°C
Wind Chill: 43°F , 6°C
Dew Point: 34°F , 1°C
Humidity: 62%
Barometer: 30.44 inHg , 1030.8 hPa
Clouds: Clear
Visibility: 10 miles , 16 km
2014/04/18 17:59 KW29 181759Z AUTO 32005KT 10SM CLR 08/01 A3044 RMK AO1
 
KCGS - College Park, Maryland, USA
Distance from station: SW 38mi, 61km
Updated: Fri, 18-Apr-2014 2:00pm EDT
Clear
Clear
 Wind from ESE
Wind: ESE 5 mph , 7 km/h
Temperature: 52°F , 11°C
Dew Point: 34°F , 1°C
Humidity: 50%
Barometer: 30.41 inHg , 1029.8 hPa
Clouds: Clear
Visibility: 10 miles , 16 km
2014/04/18 18:00 KCGS 181800Z AUTO 12004KT 10SM CLR 11/01 A3041 RMK AO1
KGAI - Gaithersburg, Maryland, USA
Distance from station: WSW 40mi, 65km
Updated: Fri, 18-Apr-2014 1:55pm EDT
Few Clouds
Few Clouds
 Wind from SE
Wind: SE 8 mph , 13 km/h
Temperature: 48°F , 9°C
Wind Chill: 44°F , 7°C
Dew Point: 32°F , 0°C
Humidity: 54%
Barometer: 30.43 inHg , 1030.5 hPa
Clouds: Few Clouds
Visibility: 10 miles , 16 km
Cloud details: Few Clouds 6000 ft
2014/04/18 17:55 KGAI 181755Z AUTO 13007KT 10SM FEW060 09/00 A3043 RMK AO1 10090 20020 57024
 
KTHV - York, Pennsylvania, USA
Distance from station: NNW 40mi, 65km
Updated: Fri, 18-Apr-2014 1:53pm EDT
Clear
Clear
 Wind from varies
Wind: varies 3 mph , 6 km/h
Temperature: 48°F , 9°C
Dew Point: 32°F , 0°C
Humidity: 54%
Barometer: 30.39 inHg , 1029.1 hPa
Clouds: Clear
Visibility: 10 miles , 16 km
2014/04/18 17:53 KTHV 181753Z AUTO VRB03KT 10SM CLR 09/00 A3039 RMK AO2 SLP297 T00940000 10100 20022 58031
KFDK - Frederick, Maryland, USA
Distance from station: W 47mi, 75km
Updated: Fri, 18-Apr-2014 1:55pm EDT
Clear
Clear
 Wind from ESE
Wind: ESE 5 mph , 7 km/h
Temperature: 52°F , 11°C
Dew Point: 37°F , 3°C
Humidity: 58%
Barometer: 30.43 inHg , 1030.5 hPa
Clouds: Clear
Visibility: 10 miles , 16 km
2014/04/18 17:55 KFDK 181755Z 12004KT 10SM SKC 11/03 A3043
 
KESN - Easton/Newnam, Maryland, USA
Distance from station: SSE 48mi, 78km
Updated: Fri, 18-Apr-2014 1:50pm EDT
Overcast
Overcast
 Wind from NNE
Wind: NNE 6 mph , 9 km/h
Temperature: 54°F , 12°C
Dew Point: 39°F , 4°C
Humidity: 58%
Barometer: 30.46 inHg , 1031.5 hPa
Clouds: Overcast
Visibility: 10 miles , 16 km
Cloud details: Overcast 10000 ft
2014/04/18 17:50 KESN 181750Z 03005KT 10SM OVC100 12/04 A3046
KDCA - Washington/Natl, Washington D.c., USA
Distance from station: SW 49mi, 79km
Updated: Fri, 18-Apr-2014 1:52pm EDT
Overcast
Overcast
 Wind from varies
Wind: varies 3 mph , 6 km/h
Temperature: 52°F , 11°C
Dew Point: 34°F , 1°C
Humidity: 50%
Barometer: 30.43 inHg , 1030.5 hPa
Clouds: Overcast
Visibility: 10 miles , 16 km
Cloud details: Partly cloudy 17000 ft
Overcast 22000 ft
2014/04/18 17:52 KDCA 181752Z VRB03KT 10SM SCT170 OVC220 11/01 A3043 RMK AO2 SLP303 T01060006 10117 20050 58025
 
KLNS - Lancaster, Pennsylvania, USA
Distance from station: N 49mi, 79km
Updated: Fri, 18-Apr-2014 1:53pm EDT
Clear
Clear
 
Temperature: 46°F , 8°C
Dew Point: 32°F , 0°C
Humidity: 57%
Barometer: 30.40 inHg , 1029.5 hPa
Clouds: Clear
Visibility: 10 miles , 16 km
2014/04/18 17:53 KLNS 181753Z 10SM CLR 08/00 A3040 RMK AO2 SLP299 T00830000 10089 20022 58026
KILG - Wilmington, Delaware, USA
Distance from station: ENE 50mi, 81km
Updated: Fri, 18-Apr-2014 1:51pm EDT
Clear
Clear
 Wind from SSE
Wind: SSE 7 mph , 11 km/h
Temperature: 48°F , 9°C
Wind Chill: 45°F , 7°C
Dew Point: 34°F , 1°C
Humidity: 58%
Barometer: 30.44 inHg , 1030.8 hPa
Clouds: Clear
Visibility: 10 miles , 16 km
2014/04/18 17:51 KILG 181751Z AUTO 15006KT 10SM CLR 09/01 A3044 RMK AO2 SLP308 T00890006 10100 20044 58021